createdAt,value
2017-05-29T00:00:34.971Z,0
2017-05-29T00:01:15.515Z,0
2017-05-29T00:01:56.047Z,0
2017-05-29T00:02:36.577Z,0
2017-05-29T00:03:17.125Z,0
2017-05-29T00:03:57.668Z,0
2017-05-29T00:04:38.205Z,0
2017-05-29T00:05:18.743Z,0
2017-05-29T00:05:59.291Z,0
2017-05-29T00:06:39.838Z,0
2017-05-29T00:07:20.381Z,0
2017-05-29T00:08:00.923Z,0
2017-05-29T00:08:41.466Z,0
2017-05-29T00:09:22.005Z,0
2017-05-29T00:10:02.557Z,0
2017-05-29T00:10:43.089Z,0
2017-05-29T00:11:23.639Z,0
2017-05-29T00:12:04.177Z,0
2017-05-29T00:12:44.715Z,0
2017-05-29T00:13:25.258Z,0
2017-05-29T00:14:05.801Z,0
2017-05-29T00:14:46.342Z,0
2017-05-29T00:15:26.908Z,0
2017-05-29T00:16:07.451Z,0
2017-05-29T00:16:47.988Z,0
2017-05-29T00:17:28.519Z,0
2017-05-29T00:18:09.056Z,0
2017-05-29T00:18:49.586Z,0
2017-05-29T00:19:30.110Z,0
2017-05-29T00:20:10.656Z,0
2017-05-29T00:20:51.188Z,0
2017-05-29T00:21:31.728Z,0
2017-05-29T00:22:12.250Z,0
2017-05-29T00:22:52.786Z,0
2017-05-29T00:23:33.329Z,0
2017-05-29T00:24:13.849Z,0
2017-05-29T00:24:54.388Z,0
2017-05-29T00:25:34.942Z,0
2017-05-29T00:26:15.477Z,0
2017-05-29T00:26:56.011Z,0
2017-05-29T00:27:36.559Z,0
2017-05-29T00:28:17.091Z,0
2017-05-29T00:28:57.638Z,0
2017-05-29T00:29:38.180Z,0
2017-05-29T00:30:18.721Z,0
2017-05-29T00:30:59.253Z,0
2017-05-29T00:31:39.793Z,0
2017-05-29T00:32:20.334Z,0
2017-05-29T00:33:00.856Z,0
2017-05-29T00:33:41.377Z,0
2017-05-29T00:34:21.918Z,0
2017-05-29T00:35:02.457Z,0
2017-05-29T00:35:42.978Z,0
2017-05-29T00:36:23.520Z,0
2017-05-29T00:37:04.048Z,0
2017-05-29T00:37:44.587Z,0
2017-05-29T00:38:25.115Z,0
2017-05-29T00:39:05.668Z,0
2017-05-29T00:39:46.215Z,0
2017-05-29T00:40:26.760Z,0
2017-05-29T00:41:07.307Z,0
2017-05-29T00:41:47.846Z,0
2017-05-29T00:42:28.389Z,0
2017-05-29T00:43:08.936Z,0
2017-05-29T00:43:49.468Z,0
2017-05-29T00:44:30.015Z,0
2017-05-29T00:45:10.552Z,0
2017-05-29T00:45:51.093Z,0
2017-05-29T00:46:31.632Z,0
2017-05-29T00:47:12.178Z,0
2017-05-29T00:47:52.713Z,0
2017-05-29T00:48:33.244Z,0
2017-05-29T00:49:13.792Z,0
2017-05-29T00:49:54.330Z,0
2017-05-29T00:50:34.861Z,0
2017-05-29T00:51:15.390Z,0
2017-05-29T00:51:55.928Z,0
2017-05-29T00:52:36.452Z,0
2017-05-29T00:53:16.997Z,0
2017-05-29T00:53:57.543Z,0
2017-05-29T00:54:38.054Z,0
2017-05-29T00:55:18.594Z,0
2017-05-29T00:55:59.137Z,0
2017-05-29T00:56:39.684Z,0
2017-05-29T00:57:20.220Z,0
2017-05-29T00:58:00.762Z,0
2017-05-29T00:58:41.301Z,0
2017-05-29T00:59:21.832Z,0
2017-05-29T01:00:02.385Z,0
2017-05-29T01:00:42.930Z,0
2017-05-29T01:01:23.461Z,0
2017-05-29T01:02:04.002Z,0
2017-05-29T01:02:44.526Z,0
2017-05-29T01:03:25.064Z,0
2017-05-29T01:04:05.602Z,0
2017-05-29T01:04:46.134Z,0
2017-05-29T01:05:26.668Z,0
2017-05-29T01:06:07.219Z,0
2017-05-29T01:06:47.742Z,0
2017-05-29T01:07:28.285Z,0
2017-05-29T01:08:08.837Z,0
2017-05-29T01:08:49.375Z,0
2017-05-29T01:09:29.916Z,0
2017-05-29T01:10:10.463Z,0
2017-05-29T01:10:51.012Z,0
2017-05-29T01:11:31.561Z,0
2017-05-29T01:12:12.091Z,0
2017-05-29T01:12:52.636Z,0
2017-05-29T01:13:33.178Z,0
2017-05-29T01:14:13.723Z,0
2017-05-29T01:14:54.265Z,0
2017-05-29T01:15:34.805Z,0
2017-05-29T01:16:15.354Z,0
2017-05-29T01:16:55.893Z,0
2017-05-29T01:17:36.422Z,0
2017-05-29T01:18:16.945Z,0
2017-05-29T01:18:57.466Z,0
2017-05-29T01:19:38.007Z,0
2017-05-29T01:20:18.555Z,0
2017-05-29T01:20:59.099Z,0
2017-05-29T01:21:39.651Z,0
2017-05-29T01:22:20.192Z,0
2017-05-29T01:23:00.738Z,0
2017-05-29T01:23:41.278Z,0
2017-05-29T01:24:21.827Z,0
2017-05-29T01:25:02.376Z,0
2017-05-29T01:25:42.905Z,0
2017-05-29T01:26:23.453Z,0
2017-05-29T01:27:03.993Z,0
2017-05-29T01:27:44.525Z,0
2017-05-29T01:28:25.171Z,0
2017-05-29T01:29:05.721Z,0
2017-05-29T01:29:46.267Z,0
2017-05-29T01:30:26.821Z,0
2017-05-29T01:31:07.368Z,0
2017-05-29T01:31:47.971Z,0
2017-05-29T01:32:28.465Z,0
2017-05-29T01:33:09.007Z,0
2017-05-29T01:33:49.559Z,0
2017-05-29T01:34:30.106Z,0
2017-05-29T01:35:10.640Z,0
2017-05-29T01:35:51.172Z,0
2017-05-29T01:36:31.727Z,0
2017-05-29T01:37:12.249Z,0
2017-05-29T01:37:52.788Z,0
2017-05-29T01:38:33.335Z,0
2017-05-29T01:39:13.880Z,0
2017-05-29T01:39:54.409Z,0
2017-05-29T01:40:34.956Z,0
2017-05-29T01:41:15.500Z,0
2017-05-29T01:41:56.041Z,0
2017-05-29T01:42:36.572Z,0
2017-05-29T01:43:17.102Z,0
2017-05-29T01:43:57.646Z,0
2017-05-29T01:44:38.174Z,0
2017-05-29T01:45:18.699Z,0
2017-05-29T01:45:59.227Z,0
2017-05-29T01:46:39.761Z,0
2017-05-29T01:47:20.297Z,0
2017-05-29T01:48:00.832Z,0
2017-05-29T01:48:41.386Z,0
2017-05-29T01:49:21.906Z,0
2017-05-29T01:50:02.452Z,0
2017-05-29T01:50:42.987Z,0
2017-05-29T01:51:23.522Z,0
2017-05-29T01:52:04.069Z,0
2017-05-29T01:52:44.613Z,0
2017-05-29T01:53:25.154Z,0
2017-05-29T01:54:05.696Z,0
2017-05-29T01:54:46.245Z,0
2017-05-29T01:55:26.780Z,0
2017-05-29T01:56:07.320Z,0
2017-05-29T01:56:47.862Z,0
2017-05-29T01:57:28.411Z,0
2017-05-29T01:58:08.961Z,0
2017-05-29T01:58:49.498Z,0
2017-05-29T01:59:30.032Z,0
2017-05-29T02:00:10.553Z,0
2017-05-29T02:00:51.089Z,0
2017-05-29T02:01:31.639Z,0
2017-05-29T02:02:12.182Z,0
2017-05-29T02:02:52.727Z,0
2017-05-29T02:03:33.268Z,0
2017-05-29T02:04:13.811Z,0
2017-05-29T02:04:54.360Z,0
2017-05-29T02:05:34.863Z,0
2017-05-29T02:06:15.411Z,0
2017-05-29T02:06:55.958Z,0
2017-05-29T02:07:36.505Z,0
2017-05-29T02:08:17.055Z,0
2017-05-29T02:08:57.579Z,0
2017-05-29T02:09:38.100Z,0
2017-05-29T02:10:18.640Z,0
2017-05-29T02:10:59.176Z,0
2017-05-29T02:11:39.710Z,0
2017-05-29T02:12:20.247Z,0
2017-05-29T02:13:00.791Z,0
2017-05-29T02:13:41.337Z,0
2017-05-29T02:14:21.875Z,0
2017-05-29T02:15:02.405Z,0
2017-05-29T02:15:42.915Z,0
2017-05-29T02:16:23.460Z,0
2017-05-29T02:17:04.006Z,0
2017-05-29T02:17:44.538Z,0
2017-05-29T02:18:25.077Z,0
2017-05-29T02:19:05.621Z,0
2017-05-29T02:19:46.142Z,0
2017-05-29T02:20:26.679Z,0
2017-05-29T02:21:07.208Z,0
2017-05-29T02:21:47.735Z,0
2017-05-29T02:22:28.270Z,0
2017-05-29T02:23:08.793Z,0
2017-05-29T02:23:49.329Z,0
2017-05-29T02:24:29.874Z,0
2017-05-29T02:25:10.419Z,0
2017-05-29T02:25:50.970Z,0
2017-05-29T02:26:31.504Z,0
2017-05-29T02:27:12.042Z,0
2017-05-29T02:27:52.593Z,0
2017-05-29T02:28:33.143Z,0
2017-05-29T02:29:13.655Z,0
2017-05-29T02:29:54.210Z,0
2017-05-29T02:30:34.746Z,0
2017-05-29T02:31:15.276Z,0
2017-05-29T02:31:55.823Z,0
2017-05-29T02:32:36.365Z,0
2017-05-29T02:33:16.904Z,0
2017-05-29T02:33:57.455Z,0
2017-05-29T02:34:37.993Z,0
2017-05-29T02:35:18.542Z,0
2017-05-29T02:35:59.082Z,0
2017-05-29T02:36:39.621Z,0
2017-05-29T02:37:20.176Z,0
2017-05-29T02:38:00.713Z,0
2017-05-29T02:38:41.252Z,0
2017-05-29T02:39:21.800Z,0
2017-05-29T02:40:02.334Z,0
2017-05-29T02:40:42.868Z,0
2017-05-29T02:41:23.405Z,0
2017-05-29T02:42:03.944Z,0
2017-05-29T02:42:44.469Z,0
2017-05-29T02:43:25.013Z,0
2017-05-29T02:44:05.537Z,0
2017-05-29T02:44:46.050Z,0
2017-05-29T02:45:26.589Z,0
2017-05-29T02:46:07.128Z,0
2017-05-29T02:46:47.653Z,0
2017-05-29T02:47:28.195Z,0
2017-05-29T02:48:08.742Z,0
2017-05-29T02:48:49.294Z,0
2017-05-29T02:49:29.842Z,0
2017-05-29T02:50:10.394Z,0
2017-05-29T02:50:50.927Z,0
2017-05-29T02:51:31.474Z,0
2017-05-29T02:52:12.014Z,0
2017-05-29T02:52:52.549Z,0
2017-05-29T02:53:33.090Z,0
2017-05-29T02:54:13.638Z,0
2017-05-29T02:54:54.182Z,0
2017-05-29T02:55:34.704Z,0
2017-05-29T02:56:15.244Z,0
2017-05-29T02:56:55.789Z,0
2017-05-29T02:57:36.332Z,0
2017-05-29T02:58:16.871Z,0
2017-05-29T02:58:57.394Z,0
2017-05-29T02:59:37.935Z,4
2017-05-29T03:00:18.480Z,4
2017-05-29T03:00:59.021Z,4
2017-05-29T03:01:39.577Z,0
2017-05-29T03:02:20.118Z,0
2017-05-29T03:03:00.669Z,4
2017-05-29T03:03:41.216Z,4
2017-05-29T03:04:21.757Z,4
2017-05-29T03:05:02.294Z,4
2017-05-29T03:05:42.840Z,4
2017-05-29T03:06:23.377Z,4
2017-05-29T03:07:03.924Z,4
2017-05-29T03:07:44.458Z,4
2017-05-29T03:08:25.006Z,8
2017-05-29T03:09:05.544Z,4
2017-05-29T03:09:46.085Z,8
2017-05-29T03:10:26.627Z,8
2017-05-29T03:11:07.167Z,12
2017-05-29T03:11:47.714Z,8
2017-05-29T03:12:28.268Z,12
2017-05-29T03:13:08.815Z,12
2017-05-29T03:13:49.364Z,16
2017-05-29T03:14:29.929Z,16
2017-05-29T03:15:10.474Z,16
2017-05-29T03:15:50.995Z,20
2017-05-29T03:16:31.532Z,24
2017-05-29T03:17:12.061Z,24
2017-05-29T03:17:52.611Z,24
2017-05-29T03:18:33.232Z,24
2017-05-29T03:19:23.174Z,28
2017-05-29T03:20:17.788Z,32
2017-05-29T03:21:17.817Z,32
2017-05-29T03:22:09.116Z,32
2017-05-29T03:22:54.494Z,32
2017-05-29T03:23:48.090Z,36
2017-05-29T03:24:53.254Z,40
2017-05-29T03:25:55.227Z,48
2017-05-29T03:28:33.906Z,52
2017-05-29T03:31:15.315Z,68
2017-05-29T03:32:05.564Z,76
2017-05-29T03:32:53.584Z,80
2017-05-29T03:33:41.564Z,84
2017-05-29T03:34:41.004Z,92
2017-05-29T03:35:32.077Z,100
2017-05-29T03:36:29.338Z,104
2017-05-29T03:37:34.557Z,112
2017-05-29T03:38:37.069Z,116
2017-05-29T03:39:38.402Z,128
2017-05-29T03:40:46.040Z,140
2017-05-29T03:41:40.036Z,148
2017-05-29T03:42:36.706Z,156
2017-05-29T03:43:45.425Z,168
2017-05-29T03:46:42.154Z,200
2017-05-29T03:47:22.698Z,208
2017-05-29T03:48:03.232Z,216
2017-05-29T03:48:43.782Z,220
2017-05-29T03:49:24.348Z,224
2017-05-29T03:50:04.928Z,232
2017-05-29T03:50:45.476Z,240
2017-05-29T03:51:26.020Z,244
2017-05-29T03:52:06.554Z,252
2017-05-29T03:52:47.085Z,264
2017-05-29T03:53:27.653Z,276
2017-05-29T03:54:08.168Z,284
2017-05-29T03:54:48.699Z,292
2017-05-29T03:55:29.218Z,304
2017-05-29T03:56:09.752Z,316
2017-05-29T03:56:50.290Z,328
2017-05-29T03:57:30.826Z,344
2017-05-29T03:58:11.365Z,368
2017-05-29T03:58:51.907Z,392
2017-05-29T03:59:32.437Z,408
2017-05-29T04:00:13.018Z,424
2017-05-29T04:00:53.557Z,440
2017-05-29T04:01:34.098Z,452
2017-05-29T04:02:14.637Z,468
2017-05-29T04:02:55.175Z,480
2017-05-29T04:03:35.715Z,504
2017-05-29T04:04:16.253Z,520
2017-05-29T04:04:56.792Z,532
2017-05-29T04:05:37.379Z,540
2017-05-29T04:06:17.889Z,548
2017-05-29T04:06:58.436Z,560
2017-05-29T04:07:38.978Z,572
2017-05-29T04:08:19.520Z,584
2017-05-29T04:09:00.077Z,596
2017-05-29T04:09:40.626Z,608
2017-05-29T04:10:21.204Z,628
2017-05-29T04:11:01.753Z,644
2017-05-29T04:11:42.305Z,664
2017-05-29T04:12:22.855Z,684
2017-05-29T04:13:03.404Z,704
2017-05-29T04:13:43.949Z,724
2017-05-29T04:14:24.492Z,744
2017-05-29T04:15:05.040Z,760
2017-05-29T04:15:45.587Z,780
2017-05-29T04:16:26.152Z,804
2017-05-29T04:17:06.665Z,824
2017-05-29T04:17:47.202Z,848
2017-05-29T04:18:27.731Z,872
2017-05-29T04:19:08.277Z,896
2017-05-29T04:19:48.807Z,920
2017-05-29T04:20:29.348Z,944
2017-05-29T04:21:09.876Z,980
2017-05-29T04:21:50.420Z,1012
2017-05-29T04:22:30.951Z,1040
2017-05-29T04:23:11.475Z,1060
2017-05-29T04:23:52.017Z,1068
2017-05-29T04:24:32.564Z,1080
2017-05-29T04:25:13.103Z,1084
2017-05-29T04:25:53.641Z,1096
2017-05-29T04:26:34.182Z,1112
2017-05-29T04:27:14.718Z,1112
2017-05-29T04:27:55.245Z,1100
2017-05-29T04:28:35.784Z,1088
2017-05-29T04:29:16.335Z,1076
2017-05-29T04:29:56.884Z,1068
2017-05-29T04:30:37.422Z,1056
2017-05-29T04:31:17.971Z,1040
2017-05-29T04:31:58.523Z,1020
2017-05-29T04:32:39.061Z,1004
2017-05-29T04:33:19.594Z,992
2017-05-29T04:34:00.133Z,984
2017-05-29T04:34:40.682Z,980
2017-05-29T04:35:21.225Z,984
2017-05-29T04:36:01.762Z,984
2017-05-29T04:36:42.304Z,988
2017-05-29T04:37:22.842Z,992
2017-05-29T04:38:03.394Z,1000
2017-05-29T04:38:43.936Z,1004
2017-05-29T04:39:24.487Z,1012
2017-05-29T04:40:05.036Z,1020
2017-05-29T04:40:45.583Z,1032
2017-05-29T04:41:26.129Z,1048
2017-05-29T04:42:06.674Z,1056
2017-05-29T04:42:47.208Z,1068
2017-05-29T04:43:27.762Z,1084
2017-05-29T04:44:08.301Z,1096
2017-05-29T04:44:48.831Z,1100
2017-05-29T04:45:29.379Z,1116
2017-05-29T04:46:09.934Z,1132
2017-05-29T04:46:50.467Z,1152
2017-05-29T04:47:31.005Z,1168
2017-05-29T04:48:11.552Z,1180
2017-05-29T04:48:52.093Z,1196
2017-05-29T04:49:32.638Z,1212
2017-05-29T04:50:13.182Z,1232
2017-05-29T04:50:53.723Z,1256
2017-05-29T04:51:34.262Z,1272
2017-05-29T04:52:14.795Z,1292
2017-05-29T04:52:55.336Z,1308
2017-05-29T04:53:35.879Z,1324
2017-05-29T04:54:16.411Z,1336
2017-05-29T04:54:56.955Z,1352
2017-05-29T04:55:37.502Z,1376
2017-05-29T04:56:18.057Z,1400
2017-05-29T04:56:58.604Z,1440
2017-05-29T04:57:39.143Z,1484
2017-05-29T04:58:19.692Z,1528
2017-05-29T04:59:00.241Z,1580
2017-05-29T04:59:40.783Z,1632
2017-05-29T05:00:21.318Z,1672
2017-05-29T05:01:01.859Z,1716
2017-05-29T05:01:42.386Z,1764
2017-05-29T05:02:22.925Z,1804
2017-05-29T05:03:03.461Z,1848
2017-05-29T05:03:44.006Z,1916
2017-05-29T05:04:24.545Z,1992
2017-05-29T05:05:05.090Z,2044
2017-05-29T05:05:45.626Z,2092
2017-05-29T05:06:26.180Z,2132
2017-05-29T05:07:06.720Z,2168
2017-05-29T05:07:47.268Z,2196
2017-05-29T05:08:27.809Z,2204
2017-05-29T05:09:08.340Z,2184
2017-05-29T05:09:48.865Z,2152
2017-05-29T05:10:29.410Z,2140
2017-05-29T05:11:09.956Z,2136
2017-05-29T05:11:50.504Z,2108
2017-05-29T05:12:31.046Z,2092
2017-05-29T05:13:11.582Z,2036
2017-05-29T05:13:52.121Z,1988
2017-05-29T05:14:32.649Z,1964
2017-05-29T05:15:13.181Z,1960
2017-05-29T05:15:53.719Z,1960
2017-05-29T05:16:34.256Z,1948
2017-05-29T05:17:14.786Z,1936
2017-05-29T05:17:55.332Z,1908
2017-05-29T05:18:35.869Z,1876
2017-05-29T05:19:16.413Z,1872
2017-05-29T05:19:56.963Z,1864
2017-05-29T05:20:37.500Z,1868
2017-05-29T05:21:18.043Z,1872
2017-05-29T05:21:58.588Z,1876
2017-05-29T05:22:39.134Z,1884
2017-05-29T05:23:19.676Z,1876
2017-05-29T05:24:00.212Z,1872
2017-05-29T05:24:40.756Z,1864
2017-05-29T05:25:21.302Z,1856
2017-05-29T05:26:01.844Z,1856
2017-05-29T05:26:42.391Z,1856
2017-05-29T05:27:22.914Z,1864
2017-05-29T05:28:03.459Z,1872
2017-05-29T05:28:44.009Z,1876
2017-05-29T05:29:24.552Z,1868
2017-05-29T05:30:05.091Z,1868
2017-05-29T05:30:45.626Z,1864
2017-05-29T05:31:26.172Z,1868
2017-05-29T05:32:06.707Z,1872
2017-05-29T05:32:47.249Z,1872
2017-05-29T05:33:27.779Z,1880
2017-05-29T05:34:08.433Z,1892
2017-05-29T05:34:48.926Z,1896
2017-05-29T05:35:29.464Z,1908
2017-05-29T05:36:09.998Z,1924
2017-05-29T05:36:50.536Z,1932
2017-05-29T05:37:31.075Z,1956
2017-05-29T05:38:11.617Z,1964
2017-05-29T05:38:52.153Z,1976
2017-05-29T05:39:32.701Z,1992
2017-05-29T05:40:13.245Z,2008
2017-05-29T05:40:53.786Z,2024
2017-05-29T05:41:34.358Z,2040
2017-05-29T05:42:14.868Z,2056
2017-05-29T05:42:55.422Z,2068
2017-05-29T05:43:35.972Z,2084
2017-05-29T05:44:16.519Z,2104
2017-05-29T05:44:57.065Z,2124
2017-05-29T05:45:37.613Z,2144
2017-05-29T05:46:18.146Z,2156
2017-05-29T05:46:58.695Z,2176
2017-05-29T05:47:39.234Z,2200
2017-05-29T05:48:19.762Z,2228
2017-05-29T05:49:00.306Z,2256
2017-05-29T05:49:40.850Z,2272
2017-05-29T05:50:21.398Z,2292
2017-05-29T05:51:02.047Z,2312
2017-05-29T05:51:42.835Z,2336
2017-05-29T05:52:23.438Z,2352
2017-05-29T05:53:03.982Z,2372
2017-05-29T05:53:44.516Z,2384
2017-05-29T05:54:25.054Z,2404
2017-05-29T05:55:05.578Z,2424
2017-05-29T05:55:46.124Z,2436
2017-05-29T05:56:26.666Z,2440
2017-05-29T05:57:07.216Z,2456
2017-05-29T05:57:47.754Z,2444
2017-05-29T05:58:28.296Z,2468
2017-05-29T05:59:08.833Z,2492
2017-05-29T05:59:49.355Z,2488
2017-05-29T06:00:29.897Z,2460
2017-05-29T06:01:10.435Z,2472
2017-05-29T06:01:50.971Z,2484
2017-05-29T06:02:31.514Z,2500
2017-05-29T06:03:12.057Z,2520
2017-05-29T06:03:52.590Z,2540
2017-05-29T06:04:33.127Z,2568
2017-05-29T06:05:13.674Z,2588
2017-05-29T06:05:54.198Z,2600
2017-05-29T06:06:34.746Z,2608
2017-05-29T06:07:15.285Z,2620
2017-05-29T06:07:55.830Z,2632
2017-05-29T06:08:36.379Z,2632
2017-05-29T06:09:16.911Z,2652
2017-05-29T06:09:57.455Z,2664
2017-05-29T06:10:37.965Z,2684
2017-05-29T06:11:18.509Z,2700
2017-05-29T06:11:59.043Z,2712
2017-05-29T06:12:39.575Z,2720
2017-05-29T06:13:20.119Z,2712
2017-05-29T06:14:00.667Z,2712
2017-05-29T06:14:41.213Z,2712
2017-05-29T06:15:21.754Z,2708
2017-05-29T06:16:02.295Z,2712
2017-05-29T06:16:42.841Z,2724
2017-05-29T06:17:23.383Z,2732
2017-05-29T06:18:03.916Z,2740
2017-05-29T06:18:44.452Z,2748
2017-05-29T06:19:24.993Z,2756
2017-05-29T06:20:05.545Z,2768
2017-05-29T06:20:46.091Z,2764
2017-05-29T06:21:26.615Z,2756
2017-05-29T06:22:07.169Z,2740
2017-05-29T06:22:47.719Z,2728
2017-05-29T06:23:28.256Z,2728
2017-05-29T06:24:08.798Z,2728
2017-05-29T06:24:49.330Z,2740
2017-05-29T06:25:29.867Z,2760
2017-05-29T06:26:10.396Z,2772
2017-05-29T06:26:50.939Z,2788
2017-05-29T06:27:31.484Z,2808
2017-05-29T06:28:12.017Z,2828
2017-05-29T06:28:52.547Z,2856
2017-05-29T06:29:33.077Z,2876
2017-05-29T06:30:13.622Z,2900
2017-05-29T06:30:54.164Z,2924
2017-05-29T06:31:34.702Z,2948
2017-05-29T06:32:15.252Z,2972
2017-05-29T06:32:55.801Z,3004
2017-05-29T06:33:36.348Z,3036
2017-05-29T06:34:16.898Z,3072
2017-05-29T06:34:57.454Z,3100
2017-05-29T06:35:37.996Z,3128
2017-05-29T06:36:18.527Z,3152
2017-05-29T06:36:59.076Z,3172
2017-05-29T06:37:39.621Z,3188
2017-05-29T06:38:20.166Z,3204
2017-05-29T06:39:00.711Z,3228
2017-05-29T06:39:41.245Z,3252
2017-05-29T06:40:21.794Z,3272
2017-05-29T06:41:02.347Z,3284
2017-05-29T06:41:42.896Z,3300
2017-05-29T06:42:23.436Z,3320
2017-05-29T06:43:03.977Z,3336
2017-05-29T06:43:44.519Z,3360
2017-05-29T06:44:25.084Z,3384
2017-05-29T06:45:05.602Z,3408
2017-05-29T06:45:46.157Z,3432
2017-05-29T06:46:26.706Z,3452
2017-05-29T06:47:07.233Z,3476
2017-05-29T06:47:47.771Z,3500
2017-05-29T06:48:28.316Z,3520
2017-05-29T06:49:08.866Z,3540
2017-05-29T06:49:49.400Z,3568
2017-05-29T06:50:29.942Z,3588
2017-05-29T06:51:10.497Z,3616
2017-05-29T06:51:51.035Z,3636
2017-05-29T06:52:31.559Z,3652
2017-05-29T06:53:12.103Z,3668
2017-05-29T06:53:52.659Z,3692
2017-05-29T06:54:33.171Z,3708
2017-05-29T06:55:13.719Z,3728
2017-05-29T06:55:54.251Z,3756
2017-05-29T06:56:34.784Z,3780
2017-05-29T06:57:15.336Z,3804
2017-05-29T06:57:55.881Z,3824
2017-05-29T06:58:36.432Z,3844
2017-05-29T06:59:16.979Z,3860
2017-05-29T06:59:57.524Z,3880
2017-05-29T07:00:38.071Z,3904
2017-05-29T07:01:18.621Z,3920
2017-05-29T07:01:59.174Z,3936
2017-05-29T07:02:39.722Z,3956
2017-05-29T07:03:20.270Z,3976
2017-05-29T07:04:00.821Z,4004
2017-05-29T07:04:41.355Z,4028
2017-05-29T07:05:21.902Z,4052
2017-05-29T07:06:02.447Z,4076
2017-05-29T07:06:42.994Z,4104
2017-05-29T07:07:23.533Z,4132
2017-05-29T07:08:04.087Z,4156
2017-05-29T07:08:44.633Z,4176
2017-05-29T07:09:25.175Z,4196
2017-05-29T07:10:05.724Z,4216
2017-05-29T07:10:46.271Z,4236
2017-05-29T07:11:26.821Z,4252
2017-05-29T07:12:07.357Z,4264
2017-05-29T07:12:47.901Z,4292
2017-05-29T07:13:28.436Z,4312
2017-05-29T07:14:08.988Z,4336
2017-05-29T07:14:49.530Z,4356
2017-05-29T07:15:30.073Z,4380
2017-05-29T07:16:10.636Z,4404
2017-05-29T07:16:51.169Z,4428
2017-05-29T07:17:31.720Z,4452
2017-05-29T07:18:12.271Z,4484
2017-05-29T07:18:52.818Z,4508
2017-05-29T07:19:33.362Z,4540
2017-05-29T07:20:13.900Z,4564
2017-05-29T07:20:54.453Z,4580
2017-05-29T07:21:35.002Z,4596
2017-05-29T07:22:15.548Z,4608
2017-05-29T07:22:56.105Z,4624
2017-05-29T07:23:36.666Z,4644
2017-05-29T07:24:17.206Z,4660
2017-05-29T07:24:57.760Z,4680
2017-05-29T07:25:38.308Z,4700
2017-05-29T07:26:18.848Z,4716
2017-05-29T07:26:59.393Z,4732
2017-05-29T07:27:39.934Z,4748
2017-05-29T07:28:20.479Z,4776
2017-05-29T07:29:01.020Z,4812
2017-05-29T07:29:41.573Z,4848
2017-05-29T07:30:22.120Z,4880
2017-05-29T07:31:02.665Z,4920
2017-05-29T07:31:43.225Z,4956
2017-05-29T07:32:23.774Z,4992
2017-05-29T07:33:04.319Z,5036
2017-05-29T07:33:44.858Z,5080
2017-05-29T07:34:25.427Z,5128
2017-05-29T07:35:05.955Z,5168
2017-05-29T07:35:46.493Z,5208
2017-05-29T07:36:27.040Z,5252
2017-05-29T07:37:07.590Z,5288
2017-05-29T07:37:48.138Z,5324
2017-05-29T07:38:28.689Z,5372
2017-05-29T07:39:09.227Z,5420
2017-05-29T07:39:49.775Z,5468
2017-05-29T07:40:30.315Z,5520
2017-05-29T07:41:10.865Z,5576
2017-05-29T07:41:51.408Z,5636
2017-05-29T07:42:31.960Z,5684
2017-05-29T07:43:12.506Z,5740
2017-05-29T07:43:53.057Z,5812
2017-05-29T07:44:33.666Z,5880
2017-05-29T07:45:14.223Z,5980
2017-05-29T07:45:54.765Z,6136
2017-05-29T07:46:35.286Z,6384
2017-05-29T07:47:15.836Z,6776
2017-05-29T07:47:56.380Z,6556
2017-05-29T07:48:36.931Z,6160
2017-05-29T07:49:17.466Z,6056
2017-05-29T07:49:58.012Z,6004
2017-05-29T07:50:38.564Z,5984
2017-05-29T07:51:19.114Z,5968
2017-05-29T07:51:59.658Z,5960
2017-05-29T07:52:40.278Z,5952
2017-05-29T07:53:20.820Z,5960
2017-05-29T07:54:01.381Z,5984
2017-05-29T07:54:41.928Z,6024
2017-05-29T07:55:22.482Z,6048
2017-05-29T07:56:03.031Z,6104
2017-05-29T07:56:43.574Z,6152
2017-05-29T07:57:24.136Z,6196
2017-05-29T07:58:04.691Z,6248
2017-05-29T07:58:45.242Z,6300
2017-05-29T07:59:25.792Z,6356
2017-05-29T08:00:06.332Z,6420
2017-05-29T08:00:46.887Z,6496
2017-05-29T08:01:27.427Z,6576
2017-05-29T08:02:07.973Z,6676
2017-05-29T08:02:48.534Z,6808
2017-05-29T08:03:29.079Z,6984
2017-05-29T08:04:09.605Z,7264
2017-05-29T08:04:50.154Z,7828
2017-05-29T08:05:30.703Z,10704
2017-05-29T08:06:11.247Z,24576
2017-05-29T08:06:51.785Z,42144
2017-05-29T08:07:32.329Z,53184
2017-05-29T08:08:12.895Z,54368
2017-05-29T08:08:53.447Z,53920
2017-05-29T08:09:33.984Z,51872
2017-05-29T08:10:14.532Z,52192
2017-05-29T08:10:55.081Z,55424
2017-05-29T08:11:35.625Z,58688
2017-05-29T08:12:16.176Z,58944
2017-05-29T08:12:56.750Z,57920
2017-05-29T08:13:37.296Z,57760
2017-05-29T08:14:17.847Z,59328
2017-05-29T08:14:58.396Z,57920
2017-05-29T08:15:38.952Z,57376
2017-05-29T08:16:19.502Z,57376
2017-05-29T08:17:00.053Z,59744
2017-05-29T08:17:40.598Z,60928
2017-05-29T08:18:21.238Z,62240
2017-05-29T08:19:01.790Z,63808
2017-05-29T08:19:42.345Z,64960
2017-05-29T08:20:22.893Z,63520
2017-05-29T08:21:03.449Z,62144
2017-05-29T08:21:44.007Z,63776
2017-05-29T08:22:24.559Z,64448
2017-05-29T08:23:05.114Z,65568
2017-05-29T08:23:45.665Z,64640
2017-05-29T08:24:26.218Z,64448
2017-05-29T08:25:06.805Z,65056
2017-05-29T08:25:47.355Z,65280
2017-05-29T08:26:27.891Z,63840
2017-05-29T08:27:08.450Z,64576
2017-05-29T08:27:49.010Z,66016
2017-05-29T08:28:29.536Z,67232
2017-05-29T08:29:10.093Z,64224
2017-05-29T08:29:50.640Z,63808
2017-05-29T08:30:31.192Z,63232
2017-05-29T08:31:11.724Z,63840
2017-05-29T08:31:52.272Z,64672
2017-05-29T08:32:32.821Z,64416
2017-05-29T08:33:13.385Z,65280
2017-05-29T08:33:53.922Z,66208
2017-05-29T08:34:34.463Z,63328
2017-05-29T08:35:15.017Z,65536
2017-05-29T08:35:55.570Z,67104
2017-05-29T08:36:36.130Z,61216
2017-05-29T08:37:16.678Z,59744
2017-05-29T08:37:57.231Z,61216
2017-05-29T08:38:37.785Z,66464
2017-05-29T08:39:18.334Z,65184
2017-05-29T08:39:58.883Z,63488
2017-05-29T08:40:39.434Z,62080
2017-05-29T08:41:19.993Z,66688
2017-05-29T08:42:00.542Z,68384
2017-05-29T08:42:41.092Z,65664
2017-05-29T08:43:21.648Z,60224
2017-05-29T08:44:02.196Z,60512
2017-05-29T08:44:42.804Z,64032
2017-05-29T08:45:23.304Z,65184
2017-05-29T08:46:03.869Z,64448
2017-05-29T08:46:44.437Z,64672
2017-05-29T08:47:24.992Z,65344
2017-05-29T08:48:05.555Z,68384
2017-05-29T08:48:46.109Z,68096
2017-05-29T08:49:26.670Z,66816
2017-05-29T08:50:07.222Z,67776
2017-05-29T08:50:47.781Z,68448
2017-05-29T08:51:28.331Z,68608
2017-05-29T08:52:08.878Z,67456
2017-05-29T08:52:49.434Z,65056
2017-05-29T08:53:29.997Z,63488
2017-05-29T08:54:10.536Z,64640
2017-05-29T08:54:51.088Z,66592
2017-05-29T08:55:31.654Z,67488
2017-05-29T08:56:12.210Z,63808
2017-05-29T08:56:52.760Z,63296
2017-05-29T08:57:33.304Z,62368
2017-05-29T08:58:13.854Z,63296
2017-05-29T08:58:54.401Z,61440
2017-05-29T08:59:34.948Z,56608
2017-05-29T09:00:15.507Z,50368
2017-05-29T09:00:56.064Z,42656
2017-05-29T09:01:36.614Z,35648
2017-05-29T09:02:17.164Z,28352
2017-05-29T09:02:57.714Z,22816
2017-05-29T09:03:38.267Z,17280
2017-05-29T09:04:18.821Z,13620
2017-05-29T09:04:59.365Z,12492
2017-05-29T09:05:39.924Z,11996
2017-05-29T09:06:20.483Z,11636
2017-05-29T09:07:01.063Z,11168
2017-05-29T09:07:41.614Z,10868
2017-05-29T09:08:22.167Z,10600
2017-05-29T09:09:02.729Z,10416
2017-05-29T09:09:43.285Z,10284
2017-05-29T09:10:23.844Z,10248
2017-05-29T09:11:04.396Z,10232
2017-05-29T09:11:44.957Z,9924
2017-05-29T09:12:25.595Z,9628
2017-05-29T09:13:06.165Z,9500
2017-05-29T09:13:46.714Z,9324
2017-05-29T09:14:27.265Z,9132
2017-05-29T09:15:07.822Z,8916
2017-05-29T09:15:48.391Z,8672
2017-05-29T09:16:28.927Z,8516
2017-05-29T09:17:09.488Z,8340
2017-05-29T09:17:50.037Z,8176
2017-05-29T09:18:30.576Z,8064
2017-05-29T09:19:11.128Z,7956
2017-05-29T09:19:51.682Z,7912
2017-05-29T09:20:32.233Z,7900
2017-05-29T09:21:12.794Z,7876
2017-05-29T09:21:53.334Z,7844
2017-05-29T09:22:33.879Z,7816
2017-05-29T09:23:14.442Z,7816
2017-05-29T09:23:54.979Z,7824
2017-05-29T09:24:35.534Z,7788
2017-05-29T09:25:16.096Z,7724
2017-05-29T09:25:56.643Z,7792
2017-05-29T09:26:37.198Z,7868
2017-05-29T09:27:17.756Z,7936
2017-05-29T09:27:58.302Z,8140
2017-05-29T09:28:38.857Z,8676
2017-05-29T09:29:19.409Z,10960
2017-05-29T09:29:59.961Z,26048
2017-05-29T09:30:40.514Z,47296
2017-05-29T09:31:21.067Z,62592